sensor_id;sensor_type;location;lat;lon;timestamp;P1;durP1;ratioP1;P2;durP2;ratioP2
78402;SDS011;67687;43.508;1.504;2023-03-12T00:25:42;3.95;;;2.20;;
78402;SDS011;67687;43.508;1.504;2023-03-12T00:28:28;3.83;;;1.88;;
78402;SDS011;67687;43.508;1.504;2023-03-12T00:31:20;4.10;;;1.83;;
78402;SDS011;67687;43.508;1.504;2023-03-12T00:33:48;3.85;;;2.05;;
78402;SDS011;67687;43.508;1.504;2023-03-12T00:36:26;3.85;;;1.98;;
78402;SDS011;67687;43.508;1.504;2023-03-12T00:39:12;4.07;;;1.67;;
78402;SDS011;67687;43.508;1.504;2023-03-12T00:41:52;4.40;;;1.83;;
78402;SDS011;67687;43.508;1.504;2023-03-12T00:44:24;4.40;;;2.27;;
78402;SDS011;67687;43.508;1.504;2023-03-12T00:47:00;5.43;;;2.25;;
78402;SDS011;67687;43.508;1.504;2023-03-12T00:49:32;4.10;;;2.03;;
78402;SDS011;67687;43.508;1.504;2023-03-12T00:52:09;4.03;;;2.13;;
78402;SDS011;67687;43.508;1.504;2023-03-12T00:54:41;5.00;;;2.30;;
78402;SDS011;67687;43.508;1.504;2023-03-12T00:57:11;3.43;;;1.80;;
78402;SDS011;67687;43.508;1.504;2023-03-12T00:59:49;3.75;;;1.77;;
78402;SDS011;67687;43.508;1.504;2023-03-12T01:02:37;4.53;;;1.80;;
78402;SDS011;67687;43.508;1.504;2023-03-12T01:05:10;3.88;;;1.95;;
78402;SDS011;67687;43.508;1.504;2023-03-12T01:07:57;3.72;;;1.80;;
78402;SDS011;67687;43.508;1.504;2023-03-12T01:10:53;3.80;;;1.90;;
78402;SDS011;67687;43.508;1.504;2023-03-12T01:13:25;3.20;;;1.65;;
78402;SDS011;67687;43.508;1.504;2023-03-12T01:19:17;3.55;;;1.70;;
78402;SDS011;67687;43.508;1.504;2023-03-12T01:21:45;4.05;;;1.65;;
78402;SDS011;67687;43.508;1.504;2023-03-12T01:24:52;3.00;;;1.40;;
78402;SDS011;67687;43.508;1.504;2023-03-12T01:31:04;3.17;;;1.45;;
78402;SDS011;67687;43.508;1.504;2023-03-12T01:33:50;3.40;;;1.90;;
78402;SDS011;67687;43.508;1.504;2023-03-12T01:36:21;4.40;;;1.80;;
78402;SDS011;67687;43.508;1.504;2023-03-12T01:39:14;4.33;;;1.90;;
78402;SDS011;67687;43.508;1.504;2023-03-12T01:41:44;2.95;;;1.27;;
78402;SDS011;67687;43.508;1.504;2023-03-12T01:48:05;2.90;;;1.20;;
78402;SDS011;67687;43.508;1.504;2023-03-12T01:50:42;3.42;;;1.33;;
78402;SDS011;67687;43.508;1.504;2023-03-12T01:53:10;3.27;;;1.40;;
78402;SDS011;67687;43.508;1.504;2023-03-12T01:56:03;4.20;;;1.27;;
78402;SDS011;67687;43.508;1.504;2023-03-12T01:58:34;3.10;;;1.20;;
78402;SDS011;67687;43.508;1.504;2023-03-12T02:01:12;3.70;;;1.48;;
78402;SDS011;67687;43.508;1.504;2023-03-12T02:04:15;2.80;;;1.08;;
78402;SDS011;67687;43.508;1.504;2023-03-12T02:06:47;2.70;;;0.90;;
78402;SDS011;67687;43.508;1.504;2023-03-12T02:09:32;2.80;;;0.93;;
78402;SDS011;67687;43.508;1.504;2023-03-12T02:12:04;2.60;;;1.00;;
78402;SDS011;67687;43.508;1.504;2023-03-12T02:14:48;2.80;;;1.05;;
78402;SDS011;67687;43.508;1.504;2023-03-12T02:17:19;2.67;;;1.02;;
78402;SDS011;67687;43.508;1.504;2023-03-12T02:23:31;3.05;;;0.90;;
78402;SDS011;67687;43.508;1.504;2023-03-12T02:29:47;2.95;;;1.15;;
78402;SDS011;67687;43.508;1.504;2023-03-12T02:32:35;2.28;;;0.80;;
78402;SDS011;67687;43.508;1.504;2023-03-12T02:35:37;2.50;;;0.80;;
78402;SDS011;67687;43.508;1.504;2023-03-12T02:44:36;2.08;;;0.70;;
78402;SDS011;67687;43.508;1.504;2023-03-12T02:47:15;3.00;;;0.80;;
78402;SDS011;67687;43.508;1.504;2023-03-12T02:50:22;2.30;;;0.77;;
78402;SDS011;67687;43.508;1.504;2023-03-12T02:53:07;2.58;;;0.93;;
78402;SDS011;67687;43.508;1.504;2023-03-12T02:55:55;2.60;;;0.90;;
78402;SDS011;67687;43.508;1.504;2023-03-12T02:58:44;4.03;;;1.00;;
78402;SDS011;67687;43.508;1.504;2023-03-12T03:01:47;3.45;;;0.90;;
78402;SDS011;67687;43.508;1.504;2023-03-12T03:04:54;2.20;;;0.70;;
78402;SDS011;67687;43.508;1.504;2023-03-12T03:10:45;2.00;;;0.70;;
78402;SDS011;67687;43.508;1.504;2023-03-12T03:13:27;1.77;;;0.43;;
78402;SDS011;67687;43.508;1.504;2023-03-12T03:19:35;2.50;;;0.70;;
78402;SDS011;67687;43.508;1.504;2023-03-12T03:22:34;2.10;;;0.50;;
78402;SDS011;67687;43.508;1.504;2023-03-12T03:25:45;2.40;;;0.70;;
78402;SDS011;67687;43.508;1.504;2023-03-12T03:28:23;2.05;;;0.60;;
78402;SDS011;67687;43.508;1.504;2023-03-12T03:31:29;1.90;;;0.63;;
78402;SDS011;67687;43.508;1.504;2023-03-12T03:34:16;3.37;;;0.80;;
78402;SDS011;67687;43.508;1.504;2023-03-12T03:36:44;2.22;;;0.70;;
78402;SDS011;67687;43.508;1.504;2023-03-12T03:39:33;2.50;;;0.88;;
78402;SDS011;67687;43.508;1.504;2023-03-12T03:42:34;2.13;;;0.77;;
78402;SDS011;67687;43.508;1.504;2023-03-12T03:45:29;8.77;;;0.80;;
78402;SDS011;67687;43.508;1.504;2023-03-12T03:56:59;2.25;;;0.70;;
78402;SDS011;67687;43.508;1.504;2023-03-12T03:59:28;2.25;;;0.70;;
78402;SDS011;67687;43.508;1.504;2023-03-12T04:02:10;1.80;;;0.53;;
78402;SDS011;67687;43.508;1.504;2023-03-12T04:05:11;2.03;;;0.73;;
78402;SDS011;67687;43.508;1.504;2023-03-12T04:08:29;1.85;;;0.52;;
78402;SDS011;67687;43.508;1.504;2023-03-12T04:14:11;1.90;;;0.60;;
78402;SDS011;67687;43.508;1.504;2023-03-12T04:16:48;1.77;;;0.50;;
78402;SDS011;67687;43.508;1.504;2023-03-12T04:19:56;2.10;;;0.65;;
78402;SDS011;67687;43.508;1.504;2023-03-12T04:22:41;2.03;;;0.60;;
78402;SDS011;67687;43.508;1.504;2023-03-12T04:25:40;2.20;;;0.85;;
78402;SDS011;67687;43.508;1.504;2023-03-12T04:28:10;2.85;;;1.00;;
78402;SDS011;67687;43.508;1.504;2023-03-12T04:30:58;6.13;;;0.97;;
78402;SDS011;67687;43.508;1.504;2023-03-12T04:33:30;6.18;;;1.33;;
78402;SDS011;67687;43.508;1.504;2023-03-12T04:36:08;9.60;;;1.40;;
78402;SDS011;67687;43.508;1.504;2023-03-12T04:39:20;4.88;;;1.40;;
78402;SDS011;67687;43.508;1.504;2023-03-12T04:42:06;9.02;;;1.60;;
78402;SDS011;67687;43.508;1.504;2023-03-12T04:44:44;11.53;;;1.63;;
78402;SDS011;67687;43.508;1.504;2023-03-12T04:50:44;11.02;;;1.80;;
78402;SDS011;67687;43.508;1.504;2023-03-12T04:53:20;9.57;;;2.10;;
78402;SDS011;67687;43.508;1.504;2023-03-12T04:55:57;8.48;;;1.60;;
78402;SDS011;67687;43.508;1.504;2023-03-12T04:58:26;10.63;;;1.50;;
78402;SDS011;67687;43.508;1.504;2023-03-12T05:01:25;9.75;;;1.58;;
78402;SDS011;67687;43.508;1.504;2023-03-12T05:03:59;12.13;;;1.58;;
78402;SDS011;67687;43.508;1.504;2023-03-12T05:09:47;8.68;;;1.40;;
78402;SDS011;67687;43.508;1.504;2023-03-12T05:12:31;10.13;;;1.67;;
78402;SDS011;67687;43.508;1.504;2023-03-12T05:15:14;14.35;;;1.70;;
78402;SDS011;67687;43.508;1.504;2023-03-12T05:18:05;11.30;;;1.73;;
78402;SDS011;67687;43.508;1.504;2023-03-12T05:21:16;11.93;;;1.50;;
78402;SDS011;67687;43.508;1.504;2023-03-12T05:26:36;11.20;;;1.50;;
78402;SDS011;67687;43.508;1.504;2023-03-12T05:29:06;13.27;;;1.75;;
78402;SDS011;67687;43.508;1.504;2023-03-12T05:31:48;12.52;;;1.60;;
78402;SDS011;67687;43.508;1.504;2023-03-12T05:37:35;10.27;;;1.42;;
78402;SDS011;67687;43.508;1.504;2023-03-12T05:40:40;10.40;;;1.60;;
78402;SDS011;67687;43.508;1.504;2023-03-12T05:43:30;13.93;;;1.90;;
78402;SDS011;67687;43.508;1.504;2023-03-12T05:46:24;9.32;;;2.05;;
78402;SDS011;67687;43.508;1.504;2023-03-12T05:49:04;10.88;;;1.58;;
78402;SDS011;67687;43.508;1.504;2023-03-12T05:51:41;12.05;;;1.30;;
78402;SDS011;67687;43.508;1.504;2023-03-12T05:54:15;6.50;;;1.20;;
78402;SDS011;67687;43.508;1.504;2023-03-12T06:00:03;12.30;;;1.50;;
78402;SDS011;67687;43.508;1.504;2023-03-12T06:02:46;9.30;;;1.20;;
78402;SDS011;67687;43.508;1.504;2023-03-12T06:05:50;9.73;;;1.50;;
78402;SDS011;67687;43.508;1.504;2023-03-12T06:08:34;10.20;;;1.43;;
78402;SDS011;67687;43.508;1.504;2023-03-12T06:11:32;10.95;;;1.30;;
78402;SDS011;67687;43.508;1.504;2023-03-12T06:17:39;12.93;;;1.85;;
78402;SDS011;67687;43.508;1.504;2023-03-12T06:20:41;8.55;;;1.48;;
78402;SDS011;67687;43.508;1.504;2023-03-12T06:23:49;13.50;;;1.60;;
78402;SDS011;67687;43.508;1.504;2023-03-12T06:26:22;10.20;;;1.30;;
78402;SDS011;67687;43.508;1.504;2023-03-12T06:29:00;6.78;;;1.20;;
78402;SDS011;67687;43.508;1.504;2023-03-12T06:31:42;8.23;;;1.58;;
78402;SDS011;67687;43.508;1.504;2023-03-12T06:34:16;12.63;;;1.45;;
78402;SDS011;67687;43.508;1.504;2023-03-12T06:36:48;7.03;;;1.50;;
78402;SDS011;67687;43.508;1.504;2023-03-12T06:39:19;11.23;;;1.92;;
78402;SDS011;67687;43.508;1.504;2023-03-12T06:41:55;9.68;;;1.58;;
78402;SDS011;67687;43.508;1.504;2023-03-12T06:44:23;9.35;;;1.73;;
78402;SDS011;67687;43.508;1.504;2023-03-12T06:46:50;10.15;;;1.75;;
78402;SDS011;67687;43.508;1.504;2023-03-12T06:49:25;10.87;;;1.93;;
78402;SDS011;67687;43.508;1.504;2023-03-12T06:52:01;10.73;;;1.70;;
78402;SDS011;67687;43.508;1.504;2023-03-12T06:54:31;9.75;;;1.60;;
78402;SDS011;67687;43.508;1.504;2023-03-12T06:57:01;12.68;;;1.63;;
78402;SDS011;67687;43.508;1.504;2023-03-12T06:59:33;9.40;;;1.40;;
78402;SDS011;67687;43.508;1.504;2023-03-12T07:02:04;10.63;;;1.60;;
78402;SDS011;67687;43.508;1.504;2023-03-12T07:04:33;11.65;;;2.63;;
78402;SDS011;67687;43.508;1.504;2023-03-12T07:07:11;13.80;;;2.78;;
78402;SDS011;67687;43.508;1.504;2023-03-12T07:09:44;11.93;;;1.58;;
78402;SDS011;67687;43.508;1.504;2023-03-12T07:12:26;10.68;;;1.77;;
78402;SDS011;67687;43.508;1.504;2023-03-12T07:15:09;9.40;;;1.63;;
78402;SDS011;67687;43.508;1.504;2023-03-12T07:17:40;10.75;;;2.15;;
78402;SDS011;67687;43.508;1.504;2023-03-12T07:20:14;11.77;;;2.05;;
78402;SDS011;67687;43.508;1.504;2023-03-12T07:22:44;11.20;;;1.90;;
78402;SDS011;67687;43.508;1.504;2023-03-12T07:25:16;7.47;;;1.95;;
78402;SDS011;67687;43.508;1.504;2023-03-12T07:27:46;9.30;;;1.83;;
78402;SDS011;67687;43.508;1.504;2023-03-12T07:30:13;10.88;;;2.22;;
78402;SDS011;67687;43.508;1.504;2023-03-12T07:32:40;8.68;;;1.80;;
78402;SDS011;67687;43.508;1.504;2023-03-12T07:35:07;13.05;;;2.50;;
78402;SDS011;67687;43.508;1.504;2023-03-12T07:37:35;8.10;;;1.80;;
78402;SDS011;67687;43.508;1.504;2023-03-12T07:40:02;9.13;;;2.40;;
78402;SDS011;67687;43.508;1.504;2023-03-12T07:42:31;13.35;;;2.30;;
78402;SDS011;67687;43.508;1.504;2023-03-12T07:44:58;10.23;;;2.38;;
78402;SDS011;67687;43.508;1.504;2023-03-12T07:47:24;14.07;;;2.85;;
78402;SDS011;67687;43.508;1.504;2023-03-12T07:49:51;11.23;;;2.53;;
78402;SDS011;67687;43.508;1.504;2023-03-12T07:52:18;13.83;;;2.67;;
78402;SDS011;67687;43.508;1.504;2023-03-12T07:54:46;11.23;;;2.80;;
78402;SDS011;67687;43.508;1.504;2023-03-12T07:57:13;9.35;;;2.30;;
78402;SDS011;67687;43.508;1.504;2023-03-12T07:59:40;12.38;;;3.03;;
78402;SDS011;67687;43.508;1.504;2023-03-12T08:02:08;12.25;;;3.10;;
78402;SDS011;67687;43.508;1.504;2023-03-12T08:04:34;14.77;;;3.40;;
78402;SDS011;67687;43.508;1.504;2023-03-12T08:07:01;18.25;;;3.30;;
78402;SDS011;67687;43.508;1.504;2023-03-12T08:09:28;15.07;;;3.10;;
78402;SDS011;67687;43.508;1.504;2023-03-12T08:11:57;10.90;;;3.53;;
78402;SDS011;67687;43.508;1.504;2023-03-12T08:14:24;10.75;;;3.28;;
78402;SDS011;67687;43.508;1.504;2023-03-12T08:16:55;11.67;;;3.30;;
78402;SDS011;67687;43.508;1.504;2023-03-12T08:19:22;13.93;;;3.58;;
78402;SDS011;67687;43.508;1.504;2023-03-12T08:21:50;8.80;;;3.15;;
78402;SDS011;67687;43.508;1.504;2023-03-12T08:24:17;10.65;;;3.53;;
78402;SDS011;67687;43.508;1.504;2023-03-12T08:26:44;13.20;;;3.88;;
78402;SDS011;67687;43.508;1.504;2023-03-12T08:29:12;12.03;;;3.63;;
78402;SDS011;67687;43.508;1.504;2023-03-12T08:31:39;13.48;;;4.32;;
78402;SDS011;67687;43.508;1.504;2023-03-12T08:34:06;12.30;;;3.97;;
78402;SDS011;67687;43.508;1.504;2023-03-12T08:36:33;10.85;;;3.58;;
78402;SDS011;67687;43.508;1.504;2023-03-12T08:39:02;14.35;;;3.88;;
78402;SDS011;67687;43.508;1.504;2023-03-12T08:41:29;12.10;;;3.47;;
78402;SDS011;67687;43.508;1.504;2023-03-12T08:43:56;12.20;;;3.33;;
78402;SDS011;67687;43.508;1.504;2023-03-12T08:46:25;13.10;;;3.60;;
78402;SDS011;67687;43.508;1.504;2023-03-12T08:48:51;12.57;;;3.85;;
78402;SDS011;67687;43.508;1.504;2023-03-12T08:51:18;11.02;;;3.58;;
78402;SDS011;67687;43.508;1.504;2023-03-12T08:53:45;12.77;;;3.27;;
78402;SDS011;67687;43.508;1.504;2023-03-12T08:56:12;8.77;;;3.35;;
78402;SDS011;67687;43.508;1.504;2023-03-12T08:58:39;9.57;;;3.30;;
78402;SDS011;67687;43.508;1.504;2023-03-12T09:01:07;7.07;;;1.77;;
78402;SDS011;67687;43.508;1.504;2023-03-12T09:03:35;24.15;;;12.77;;
78402;SDS011;67687;43.508;1.504;2023-03-12T09:06:03;4.73;;;1.50;;
78402;SDS011;67687;43.508;1.504;2023-03-12T09:08:31;5.13;;;1.20;;
78402;SDS011;67687;43.508;1.504;2023-03-12T09:10:58;8.07;;;3.50;;
78402;SDS011;67687;43.508;1.504;2023-03-12T09:13:25;3.97;;;1.10;;
78402;SDS011;67687;43.508;1.504;2023-03-12T09:15:56;4.13;;;1.27;;
78402;SDS011;67687;43.508;1.504;2023-03-12T09:18:24;5.10;;;3.10;;
78402;SDS011;67687;43.508;1.504;2023-03-12T09:20:52;3.17;;;1.00;;
78402;SDS011;67687;43.508;1.504;2023-03-12T09:23:19;3.00;;;0.90;;
78402;SDS011;67687;43.508;1.504;2023-03-12T09:25:46;4.18;;;1.00;;
78402;SDS011;67687;43.508;1.504;2023-03-12T09:28:13;2.80;;;1.02;;
78402;SDS011;67687;43.508;1.504;2023-03-12T09:30:39;2.90;;;1.20;;
78402;SDS011;67687;43.508;1.504;2023-03-12T09:33:06;3.00;;;0.88;;
78402;SDS011;67687;43.508;1.504;2023-03-12T09:35:33;2.55;;;0.80;;
78402;SDS011;67687;43.508;1.504;2023-03-12T09:38:02;5.78;;;2.10;;
78402;SDS011;67687;43.508;1.504;2023-03-12T09:40:29;14.07;;;3.47;;
78402;SDS011;67687;43.508;1.504;2023-03-12T09:42:58;9.60;;;3.57;;
78402;SDS011;67687;43.508;1.504;2023-03-12T09:45:27;10.40;;;3.40;;
78402;SDS011;67687;43.508;1.504;2023-03-12T09:47:56;8.85;;;3.40;;
78402;SDS011;67687;43.508;1.504;2023-03-12T09:50:25;12.48;;;4.00;;
78402;SDS011;67687;43.508;1.504;2023-03-12T09:52:56;10.60;;;4.03;;
78402;SDS011;67687;43.508;1.504;2023-03-12T09:55:27;12.10;;;4.00;;
78402;SDS011;67687;43.508;1.504;2023-03-12T09:57:58;11.55;;;3.80;;
78402;SDS011;67687;43.508;1.504;2023-03-12T10:00:27;7.82;;;3.35;;
78402;SDS011;67687;43.508;1.504;2023-03-12T10:03:03;7.70;;;2.90;;
78402;SDS011;67687;43.508;1.504;2023-03-12T10:05:45;7.40;;;3.30;;
78402;SDS011;67687;43.508;1.504;2023-03-12T10:08:26;8.50;;;3.13;;
78402;SDS011;67687;43.508;1.504;2023-03-12T10:10:59;8.32;;;3.10;;
78402;SDS011;67687;43.508;1.504;2023-03-12T10:13:38;6.07;;;2.20;;
78402;SDS011;67687;43.508;1.504;2023-03-12T10:16:14;6.40;;;2.47;;
78402;SDS011;67687;43.508;1.504;2023-03-12T10:18:52;4.18;;;2.20;;
78402;SDS011;67687;43.508;1.504;2023-03-12T10:21:25;3.90;;;2.40;;
78402;SDS011;67687;43.508;1.504;2023-03-12T10:24:02;3.83;;;2.10;;
78402;SDS011;67687;43.508;1.504;2023-03-12T10:26:37;4.43;;;2.10;;
78402;SDS011;67687;43.508;1.504;2023-03-12T10:29:09;4.47;;;2.00;;
78402;SDS011;67687;43.508;1.504;2023-03-12T10:31:40;4.15;;;1.70;;
78402;SDS011;67687;43.508;1.504;2023-03-12T10:34:14;5.63;;;1.70;;
78402;SDS011;67687;43.508;1.504;2023-03-12T10:36:44;3.38;;;1.17;;
78402;SDS011;67687;43.508;1.504;2023-03-12T10:39:12;3.05;;;1.00;;
78402;SDS011;67687;43.508;1.504;2023-03-12T10:41:42;3.88;;;1.05;;
78402;SDS011;67687;43.508;1.504;2023-03-12T10:44:11;2.88;;;1.25;;
78402;SDS011;67687;43.508;1.504;2023-03-12T10:46:54;2.70;;;1.13;;
78402;SDS011;67687;43.508;1.504;2023-03-12T10:49:26;2.60;;;1.00;;
78402;SDS011;67687;43.508;1.504;2023-03-12T10:51:56;2.30;;;0.82;;
78402;SDS011;67687;43.508;1.504;2023-03-12T10:54:29;2.80;;;0.80;;
78402;SDS011;67687;43.508;1.504;2023-03-12T10:56:59;2.42;;;0.90;;
78402;SDS011;67687;43.508;1.504;2023-03-12T10:59:27;2.20;;;0.73;;
78402;SDS011;67687;43.508;1.504;2023-03-12T11:01:56;2.50;;;0.88;;
78402;SDS011;67687;43.508;1.504;2023-03-12T11:04:23;2.40;;;1.00;;
78402;SDS011;67687;43.508;1.504;2023-03-12T11:09:43;2.97;;;1.02;;
78402;SDS011;67687;43.508;1.504;2023-03-12T11:12:25;3.27;;;1.30;;
78402;SDS011;67687;43.508;1.504;2023-03-12T11:14:54;2.97;;;1.33;;
78402;SDS011;67687;43.508;1.504;2023-03-12T11:17:22;3.10;;;1.27;;
78402;SDS011;67687;43.508;1.504;2023-03-12T11:19:50;2.75;;;1.02;;
78402;SDS011;67687;43.508;1.504;2023-03-12T11:22:27;2.90;;;0.90;;
78402;SDS011;67687;43.508;1.504;2023-03-12T11:24:55;2.70;;;0.90;;
78402;SDS011;67687;43.508;1.504;2023-03-12T11:27:29;2.13;;;0.80;;
78402;SDS011;67687;43.508;1.504;2023-03-12T11:30:03;2.20;;;0.80;;
78402;SDS011;67687;43.508;1.504;2023-03-12T11:32:32;2.03;;;0.75;;
78402;SDS011;67687;43.508;1.504;2023-03-12T11:35:00;2.03;;;0.60;;
78402;SDS011;67687;43.508;1.504;2023-03-12T11:37:30;2.10;;;0.80;;
78402;SDS011;67687;43.508;1.504;2023-03-12T11:40:14;2.25;;;0.82;;
78402;SDS011;67687;43.508;1.504;2023-03-12T11:42:51;2.47;;;1.02;;
78402;SDS011;67687;43.508;1.504;2023-03-12T11:45:27;2.92;;;1.13;;
78402;SDS011;67687;43.508;1.504;2023-03-12T11:47:58;2.42;;;1.08;;
78402;SDS011;67687;43.508;1.504;2023-03-12T11:50:35;2.97;;;1.00;;
78402;SDS011;67687;43.508;1.504;2023-03-12T11:53:11;2.40;;;0.93;;
78402;SDS011;67687;43.508;1.504;2023-03-12T11:55:51;2.25;;;0.80;;
78402;SDS011;67687;43.508;1.504;2023-03-12T11:58:37;2.45;;;0.68;;
78402;SDS011;67687;43.508;1.504;2023-03-12T12:01:12;2.17;;;0.90;;
78402;SDS011;67687;43.508;1.504;2023-03-12T12:06:41;2.33;;;0.90;;
78402;SDS011;67687;43.508;1.504;2023-03-12T12:09:20;2.20;;;0.82;;
78402;SDS011;67687;43.508;1.504;2023-03-12T12:11:54;3.47;;;1.05;;
78402;SDS011;67687;43.508;1.504;2023-03-12T12:14:34;2.65;;;1.08;;
78402;SDS011;67687;43.508;1.504;2023-03-12T12:17:12;2.93;;;1.07;;
78402;SDS011;67687;43.508;1.504;2023-03-12T12:19:52;2.45;;;1.05;;
78402;SDS011;67687;43.508;1.504;2023-03-12T12:22:30;2.40;;;0.90;;
78402;SDS011;67687;43.508;1.504;2023-03-12T12:25:17;2.72;;;0.90;;
78402;SDS011;67687;43.508;1.504;2023-03-12T12:27:49;2.22;;;0.80;;
78402;SDS011;67687;43.508;1.504;2023-03-12T12:30:23;2.30;;;1.00;;
78402;SDS011;67687;43.508;1.504;2023-03-12T12:32:59;2.70;;;1.20;;
78402;SDS011;67687;43.508;1.504;2023-03-12T12:35:34;2.30;;;0.80;;
78402;SDS011;67687;43.508;1.504;2023-03-12T12:38:02;2.30;;;0.90;;
78402;SDS011;67687;43.508;1.504;2023-03-12T12:40:33;2.40;;;1.00;;
78402;SDS011;67687;43.508;1.504;2023-03-12T12:43:04;2.97;;;0.87;;
78402;SDS011;67687;43.508;1.504;2023-03-12T12:45:38;2.38;;;1.02;;
78402;SDS011;67687;43.508;1.504;2023-03-12T12:48:07;2.45;;;0.98;;
78402;SDS011;67687;43.508;1.504;2023-03-12T12:50:38;2.42;;;1.10;;
78402;SDS011;67687;43.508;1.504;2023-03-12T12:53:09;2.58;;;1.20;;
78402;SDS011;67687;43.508;1.504;2023-03-12T12:55:42;2.20;;;0.93;;
78402;SDS011;67687;43.508;1.504;2023-03-12T12:58:18;2.50;;;0.98;;
78402;SDS011;67687;43.508;1.504;2023-03-12T13:00:49;2.40;;;0.90;;
78402;SDS011;67687;43.508;1.504;2023-03-12T13:03:17;2.38;;;0.90;;
78402;SDS011;67687;43.508;1.504;2023-03-12T13:05:52;2.20;;;0.90;;
78402;SDS011;67687;43.508;1.504;2023-03-12T13:08:34;2.30;;;1.00;;
78402;SDS011;67687;43.508;1.504;2023-03-12T13:11:23;2.80;;;1.00;;
78402;SDS011;67687;43.508;1.504;2023-03-12T13:16:42;2.10;;;0.90;;
78402;SDS011;67687;43.508;1.504;2023-03-12T13:22:01;2.40;;;0.90;;
78402;SDS011;67687;43.508;1.504;2023-03-12T13:24:32;2.55;;;0.90;;
78402;SDS011;67687;43.508;1.504;2023-03-12T13:27:02;2.45;;;0.93;;
78402;SDS011;67687;43.508;1.504;2023-03-12T13:29:35;2.30;;;0.88;;
78402;SDS011;67687;43.508;1.504;2023-03-12T13:32:06;2.30;;;1.00;;
78402;SDS011;67687;43.508;1.504;2023-03-12T13:37:26;2.88;;;0.70;;
78402;SDS011;67687;43.508;1.504;2023-03-12T13:43:14;2.40;;;0.90;;
78402;SDS011;67687;43.508;1.504;2023-03-12T13:45:53;2.33;;;0.70;;
78402;SDS011;67687;43.508;1.504;2023-03-12T13:48:23;2.43;;;0.90;;
78402;SDS011;67687;43.508;1.504;2023-03-12T13:50:50;3.38;;;0.80;;
78402;SDS011;67687;43.508;1.504;2023-03-12T13:53:20;3.47;;;1.45;;
78402;SDS011;67687;43.508;1.504;2023-03-12T13:55:48;2.47;;;0.90;;
78402;SDS011;67687;43.508;1.504;2023-03-12T13:58:26;2.25;;;0.70;;
78402;SDS011;67687;43.508;1.504;2023-03-12T14:00:54;2.30;;;1.00;;
78402;SDS011;67687;43.508;1.504;2023-03-12T14:03:25;2.80;;;0.60;;
78402;SDS011;67687;43.508;1.504;2023-03-12T14:05:55;2.63;;;0.70;;
78402;SDS011;67687;43.508;1.504;2023-03-12T14:08:28;2.15;;;0.77;;
78402;SDS011;67687;43.508;1.504;2023-03-12T14:17:14;2.35;;;0.65;;
78402;SDS011;67687;43.508;1.504;2023-03-12T14:19:45;3.42;;;0.80;;
78402;SDS011;67687;43.508;1.504;2023-03-12T14:22:13;2.88;;;0.80;;
78402;SDS011;67687;43.508;1.504;2023-03-12T14:24:40;3.30;;;1.00;;
78402;SDS011;67687;43.508;1.504;2023-03-12T14:27:14;1.70;;;0.50;;
78402;SDS011;67687;43.508;1.504;2023-03-12T14:29:44;2.72;;;0.70;;
78402;SDS011;67687;43.508;1.504;2023-03-12T14:32:15;2.15;;;0.70;;
78402;SDS011;67687;43.508;1.504;2023-03-12T14:34:46;2.88;;;0.70;;
78402;SDS011;67687;43.508;1.504;2023-03-12T14:37:17;2.65;;;0.88;;
78402;SDS011;67687;43.508;1.504;2023-03-12T14:39:47;3.40;;;0.80;;
78402;SDS011;67687;43.508;1.504;2023-03-12T14:42:19;2.03;;;0.70;;
78402;SDS011;67687;43.508;1.504;2023-03-12T14:44:53;2.17;;;0.77;;
78402;SDS011;67687;43.508;1.504;2023-03-12T14:47:22;2.10;;;0.70;;
78402;SDS011;67687;43.508;1.504;2023-03-12T14:49:50;2.72;;;0.77;;
78402;SDS011;67687;43.508;1.504;2023-03-12T14:52:21;2.03;;;0.67;;
78402;SDS011;67687;43.508;1.504;2023-03-12T14:54:52;1.98;;;0.68;;
78402;SDS011;67687;43.508;1.504;2023-03-12T14:57:19;2.47;;;0.70;;
78402;SDS011;67687;43.508;1.504;2023-03-12T14:59:50;2.50;;;0.80;;
78402;SDS011;67687;43.508;1.504;2023-03-12T15:02:18;2.53;;;0.73;;
78402;SDS011;67687;43.508;1.504;2023-03-12T15:04:46;2.23;;;0.70;;
78402;SDS011;67687;43.508;1.504;2023-03-12T15:07:15;2.92;;;0.70;;
78402;SDS011;67687;43.508;1.504;2023-03-12T15:09:45;2.00;;;0.50;;
78402;SDS011;67687;43.508;1.504;2023-03-12T15:12:17;2.72;;;0.60;;
78402;SDS011;67687;43.508;1.504;2023-03-12T15:14:45;2.10;;;0.70;;
78402;SDS011;67687;43.508;1.504;2023-03-12T15:17:15;2.20;;;0.70;;
78402;SDS011;67687;43.508;1.504;2023-03-12T15:19:42;2.65;;;0.77;;
78402;SDS011;67687;43.508;1.504;2023-03-12T15:22:10;2.13;;;0.70;;
78402;SDS011;67687;43.508;1.504;2023-03-12T15:24:42;2.30;;;0.80;;
78402;SDS011;67687;43.508;1.504;2023-03-12T15:27:27;3.08;;;0.80;;
78402;SDS011;67687;43.508;1.504;2023-03-12T15:29:57;2.13;;;0.60;;
78402;SDS011;67687;43.508;1.504;2023-03-12T15:32:24;2.95;;;0.75;;
78402;SDS011;67687;43.508;1.504;2023-03-12T15:34:52;2.72;;;0.80;;
78402;SDS011;67687;43.508;1.504;2023-03-12T15:37:21;1.95;;;0.60;;
78402;SDS011;67687;43.508;1.504;2023-03-12T15:39:55;3.03;;;1.00;;
78402;SDS011;67687;43.508;1.504;2023-03-12T15:42:22;2.00;;;0.60;;
78402;SDS011;67687;43.508;1.504;2023-03-12T15:44:50;2.13;;;0.70;;
78402;SDS011;67687;43.508;1.504;2023-03-12T15:47:19;2.20;;;0.70;;
78402;SDS011;67687;43.508;1.504;2023-03-12T15:49:47;2.22;;;0.75;;
78402;SDS011;67687;43.508;1.504;2023-03-12T15:52:27;2.35;;;0.80;;
78402;SDS011;67687;43.508;1.504;2023-03-12T15:55:04;2.63;;;0.80;;
78402;SDS011;67687;43.508;1.504;2023-03-12T15:57:33;2.00;;;0.70;;
78402;SDS011;67687;43.508;1.504;2023-03-12T16:02:50;2.45;;;0.70;;
78402;SDS011;67687;43.508;1.504;2023-03-12T16:05:19;2.08;;;0.60;;
78402;SDS011;67687;43.508;1.504;2023-03-12T16:07:46;2.23;;;0.90;;
78402;SDS011;67687;43.508;1.504;2023-03-12T16:10:16;2.58;;;1.02;;
78402;SDS011;67687;43.508;1.504;2023-03-12T16:12:45;2.25;;;0.80;;
78402;SDS011;67687;43.508;1.504;2023-03-12T16:15:13;2.83;;;0.98;;
78402;SDS011;67687;43.508;1.504;2023-03-12T16:17:40;2.95;;;0.77;;
78402;SDS011;67687;43.508;1.504;2023-03-12T16:20:10;2.53;;;0.90;;
78402;SDS011;67687;43.508;1.504;2023-03-12T16:22:37;2.15;;;0.75;;
78402;SDS011;67687;43.508;1.504;2023-03-12T16:25:05;2.35;;;0.85;;
78402;SDS011;67687;43.508;1.504;2023-03-12T16:27:33;2.47;;;0.90;;
78402;SDS011;67687;43.508;1.504;2023-03-12T16:30:04;2.90;;;0.93;;
78402;SDS011;67687;43.508;1.504;2023-03-12T16:32:32;2.77;;;0.70;;
78402;SDS011;67687;43.508;1.504;2023-03-12T16:34:58;2.28;;;0.68;;
78402;SDS011;67687;43.508;1.504;2023-03-12T16:37:26;2.45;;;0.80;;
78402;SDS011;67687;43.508;1.504;2023-03-12T16:39:52;2.70;;;0.85;;
78402;SDS011;67687;43.508;1.504;2023-03-12T16:42:19;2.75;;;1.00;;
78402;SDS011;67687;43.508;1.504;2023-03-12T16:44:47;2.80;;;1.07;;
78402;SDS011;67687;43.508;1.504;2023-03-12T16:47:14;3.45;;;1.30;;
78402;SDS011;67687;43.508;1.504;2023-03-12T16:49:42;2.80;;;1.23;;
78402;SDS011;67687;43.508;1.504;2023-03-12T16:52:16;3.30;;;1.20;;
78402;SDS011;67687;43.508;1.504;2023-03-12T16:54:44;2.70;;;1.00;;
78402;SDS011;67687;43.508;1.504;2023-03-12T16:57:12;3.63;;;1.20;;
78402;SDS011;67687;43.508;1.504;2023-03-12T16:59:43;4.32;;;1.40;;
78402;SDS011;67687;43.508;1.504;2023-03-12T17:02:14;2.65;;;0.90;;
78402;SDS011;67687;43.508;1.504;2023-03-12T17:04:42;2.80;;;0.90;;
78402;SDS011;67687;43.508;1.504;2023-03-12T17:07:09;2.92;;;1.13;;
78402;SDS011;67687;43.508;1.504;2023-03-12T17:09:36;3.57;;;1.13;;
78402;SDS011;67687;43.508;1.504;2023-03-12T17:12:03;2.33;;;0.90;;
78402;SDS011;67687;43.508;1.504;2023-03-12T17:14:30;2.30;;;0.80;;
78402;SDS011;67687;43.508;1.504;2023-03-12T17:16:56;3.38;;;0.82;;
78402;SDS011;67687;43.508;1.504;2023-03-12T17:19:25;3.25;;;1.00;;
78402;SDS011;67687;43.508;1.504;2023-03-12T17:21:51;2.80;;;1.10;;
78402;SDS011;67687;43.508;1.504;2023-03-12T17:24:18;3.10;;;1.00;;